Time;durP1;ratioP1;P1;durP2;ratioP2;P2;SDS_P1;SDS_P2;PMS_P1;PMS_P2;Temp;Humidity;BMP_temperature;BMP_pressure;BME280_temperature;BME280_humidity;BME280_pressure;Samples;Min_cycle;Max_cycle;Signal;HPM_P1;HPM_P2
2022/02/11 00:01:59;;;;;;;0.60;0.60;;;;;;;;;;1861330;76;25886;-51
2022/02/11 00:09:08;;;;;;;0.42;0.42;;;;;;;;;;1865958;75;26407;-47
2022/02/11 00:11:39;;;;;;;1.45;0.50;;;;;;;;;;1853079;76;26300;-48
2022/02/11 00:14:08;;;;;;;0.50;0.50;;;;;;;;;;1840563;76;26407;-58
2022/02/11 00:16:38;;;;;;;0.72;0.55;;;;;;;;;;1832402;76;26712;-50
2022/02/11 00:19:06;;;;;;;0.37;0.37;;;;;;;;;;1846580;76;26770;-49
2022/02/11 00:21:34;;;;;;;0.72;0.60;;;;;;;;;;1844017;76;26269;-43
2022/02/11 00:24:01;;;;;;;0.50;0.50;;;;;;;;;;1843614;76;26264;-46
2022/02/11 00:26:33;;;;;;;0.50;0.50;;;;;;;;;;1846003;76;26253;-46
2022/02/11 00:34:33;;;;;;;0.50;0.50;;;;;;;;;;1845953;76;26260;-49
2022/02/11 00:37:10;;;;;;;0.50;0.50;;;;;;;;;;1846087;76;26218;-44
2022/02/11 01:05:42;;;;;;;0.37;0.37;;;;;;;;;;1829966;76;26282;-43
2022/02/11 01:08:09;;;;;;;0.50;0.50;;;;;;;;;;1846169;76;26339;-51
2022/02/11 01:10:36;;;;;;;0.65;0.65;;;;;;;;;;1844204;76;26260;-50
2022/02/11 01:13:04;;;;;;;0.80;0.60;;;;;;;;;;1851564;76;26367;-47
2022/02/11 01:15:34;;;;;;;0.50;0.50;;;;;;;;;;1858536;76;26693;-49
2022/02/11 01:18:03;;;;;;;0.60;0.60;;;;;;;;;;1862916;76;26346;-51
2022/02/11 01:20:47;;;;;;;0.37;0.37;;;;;;;;;;1865850;75;26325;-48
2022/02/11 01:23:37;;;;;;;0.40;0.40;;;;;;;;;;1859705;76;26373;-43
2022/02/11 01:26:11;;;;;;;0.45;0.45;;;;;;;;;;1856941;76;26697;-47
2022/02/11 01:31:35;;;;;;;0.78;0.50;;;;;;;;;;1862675;76;26766;-45
2022/02/11 01:39:35;;;;;;;0.50;0.50;;;;;;;;;;1855468;76;26316;-50
2022/02/11 01:44:52;;;;;;;0.50;0.50;;;;;;;;;;1863276;76;26746;-47
2022/02/11 01:47:23;;;;;;;0.30;0.30;;;;;;;;;;1847252;76;26728;-48
2022/02/11 01:52:27;;;;;;;0.40;0.40;;;;;;;;;;1864168;76;26247;-46
2022/02/11 02:19:41;;;;;;;0.42;0.42;;;;;;;;;;1850985;76;26206;-49
2022/02/11 02:21:50;;;;;;;0.65;0.53;;;;;;;;;;1855770;76;26309;-43
2022/02/11 02:43:26;;;;;;;0.47;0.47;;;;;;;;;;1862660;76;26327;-43
2022/02/11 02:50:25;;;;;;;1.00;0.50;;;;;;;;;;1862642;76;26701;-47
2022/02/11 02:58:28;;;;;;;0.85;0.50;;;;;;;;;;1849659;75;26588;-45
2022/02/11 03:01:12;;;;;;;0.65;0.33;;;;;;;;;;1861975;76;26846;-45
2022/02/11 03:56:03;;;;;;;0.47;0.45;;;;;;;;;;1820520;77;26354;-43
2022/02/11 04:23:08;;;;;;;0.30;0.30;;;;;;;;;;1853683;77;26785;-48
2022/02/11 04:55:16;;;;;;;0.15;0.15;;;;;;;;;;1799697;76;26335;-42
2022/02/11 05:00:20;;;;;;;0.30;0.30;;;;;;;;;;1856529;76;26292;-49
2022/02/11 05:02:49;;;;;;;0.30;0.30;;;;;;;;;;1861805;76;26335;-43
2022/02/11 05:05:17;;;;;;;1.40;0.60;;;;;;;;;;1863203;76;26347;-48
2022/02/11 05:07:44;;;;;;;0.30;0.30;;;;;;;;;;1864075;75;26715;-45
2022/02/11 05:10:15;;;;;;;0.47;0.47;;;;;;;;;;1861773;75;26751;-47
2022/02/11 05:12:45;;;;;;;0.20;0.20;;;;;;;;;;1861275;76;26226;-46
2022/02/11 05:15:15;;;;;;;0.40;0.40;;;;;;;;;;1849882;76;26778;-47
2022/02/11 05:17:51;;;;;;;0.40;0.40;;;;;;;;;;1847404;76;26269;-46
2022/02/11 05:20:15;;;;;;;0.40;0.40;;;;;;;;;;1845785;76;26261;-48
2022/02/11 05:22:42;;;;;;;0.62;0.47;;;;;;;;;;1850738;76;26210;-44
2022/02/11 05:25:09;;;;;;;0.30;0.30;;;;;;;;;;1847553;76;26294;-53
2022/02/11 05:27:37;;;;;;;0.55;0.30;;;;;;;;;;1847962;76;26275;-44
2022/02/11 05:30:05;;;;;;;0.60;0.60;;;;;;;;;;1846974;76;26367;-46
2022/02/11 05:32:33;;;;;;;0.23;0.23;;;;;;;;;;1848634;76;26250;-43
2022/02/11 05:35:00;;;;;;;0.30;0.30;;;;;;;;;;1849530;77;26266;-43
2022/02/11 05:37:27;;;;;;;1.05;0.40;;;;;;;;;;1849107;77;26219;-43
2022/02/11 05:39:54;;;;;;;0.40;0.40;;;;;;;;;;1848282;76;26300;-43
2022/02/11 05:42:22;;;;;;;0.57;0.40;;;;;;;;;;1846722;76;26894;-48
2022/02/11 05:44:49;;;;;;;0.70;0.40;;;;;;;;;;1847731;76;26722;-45
2022/02/11 05:47:16;;;;;;;0.50;0.50;;;;;;;;;;1848953;76;26305;-45
2022/02/11 05:49:44;;;;;;;0.30;0.30;;;;;;;;;;1846439;76;26254;-48
2022/02/11 05:52:11;;;;;;;0.30;0.30;;;;;;;;;;1847070;76;26365;-52
2022/02/11 05:54:38;;;;;;;0.30;0.30;;;;;;;;;;1846375;76;26332;-43
2022/02/11 05:57:05;;;;;;;0.35;0.35;;;;;;;;;;1846915;76;26047;-48
2022/02/11 05:59:33;;;;;;;0.65;0.40;;;;;;;;;;1847682;76;26317;-48
2022/02/11 06:02:00;;;;;;;0.33;0.33;;;;;;;;;;1847406;76;26210;-44
2022/02/11 06:04:27;;;;;;;0.40;0.40;;;;;;;;;;1847240;76;26261;-44
2022/02/11 06:06:57;;;;;;;0.40;0.40;;;;;;;;;;1846286;76;26254;-49
2022/02/11 06:09:23;;;;;;;0.72;0.40;;;;;;;;;;1847380;76;26221;-47
2022/02/11 06:11:51;;;;;;;0.40;0.40;;;;;;;;;;1846181;76;26364;-48
2022/02/11 06:14:18;;;;;;;0.82;0.47;;;;;;;;;;1847603;76;26439;-44
2022/02/11 06:16:46;;;;;;;0.28;0.28;;;;;;;;;;1861930;76;26272;-48
2022/02/11 06:19:13;;;;;;;3.25;0.70;;;;;;;;;;1862497;76;26304;-49
2022/02/11 06:21:40;;;;;;;1.22;0.30;;;;;;;;;;1859565;76;26269;-43
2022/02/11 06:24:08;;;;;;;1.22;0.20;;;;;;;;;;1861617;76;26269;-44
2022/02/11 06:26:35;;;;;;;0.30;0.30;;;;;;;;;;1860426;76;26343;-49
2022/02/11 06:29:03;;;;;;;0.40;0.40;;;;;;;;;;1863354;76;26765;-44
2022/02/11 06:31:30;;;;;;;5.85;1.67;;;;;;;;;;1863077;76;26291;-42
2022/02/11 06:33:57;;;;;;;2.08;0.45;;;;;;;;;;1863643;76;26285;-48
2022/02/11 06:36:25;;;;;;;0.45;0.45;;;;;;;;;;1863431;76;26308;-52
2022/02/11 06:38:52;;;;;;;0.65;0.40;;;;;;;;;;1853301;76;26281;-50
2022/02/11 06:41:19;;;;;;;0.88;0.50;;;;;;;;;;1862701;76;26347;-48
2022/02/11 06:43:47;;;;;;;1.22;0.40;;;;;;;;;;1842821;76;26342;-43
2022/02/11 06:46:15;;;;;;;0.60;0.60;;;;;;;;;;1853036;75;26285;-47
2022/02/11 06:48:42;;;;;;;1.62;0.47;;;;;;;;;;1880706;75;26342;-45
2022/02/11 06:51:10;;;;;;;5.67;0.75;;;;;;;;;;1849468;75;26304;-44
2022/02/11 06:53:37;;;;;;;3.47;0.47;;;;;;;;;;1862873;76;26285;-48
2022/02/11 06:56:05;;;;;;;0.57;0.50;;;;;;;;;;1855183;76;26362;-46
2022/02/11 06:58:32;;;;;;;3.90;0.57;;;;;;;;;;1858482;75;26261;-46
2022/02/11 07:01:00;;;;;;;4.58;0.60;;;;;;;;;;1855607;76;26822;-45
2022/02/11 07:03:27;;;;;;;4.08;0.50;;;;;;;;;;1866424;76;26273;-47
2022/02/11 07:05:56;;;;;;;0.95;0.60;;;;;;;;;;1864009;76;26661;-46
2022/02/11 07:08:24;;;;;;;4.87;0.80;;;;;;;;;;1862286;76;26281;-42
2022/02/11 07:10:51;;;;;;;4.03;1.12;;;;;;;;;;1863197;76;26245;-43
2022/02/11 07:13:19;;;;;;;1.10;0.50;;;;;;;;;;1860569;76;26260;-44
2022/02/11 07:15:47;;;;;;;0.72;0.50;;;;;;;;;;1854896;76;26383;-47
2022/02/11 07:18:14;;;;;;;2.17;0.50;;;;;;;;;;1848204;76;26253;-43
2022/02/11 07:20:44;;;;;;;0.57;0.50;;;;;;;;;;1843696;76;26254;-43
2022/02/11 07:23:12;;;;;;;3.58;0.62;;;;;;;;;;1840140;76;26225;-49
2022/02/11 07:25:40;;;;;;;8.78;0.85;;;;;;;;;;1845381;76;26777;-41
2022/02/11 07:28:08;;;;;;;1.87;0.50;;;;;;;;;;1844650;76;26250;-41
2022/02/11 07:30:35;;;;;;;0.88;0.60;;;;;;;;;;1849428;76;25963;-44
2022/02/11 07:33:03;;;;;;;3.08;0.60;;;;;;;;;;1838163;76;26258;-42
2022/02/11 07:35:30;;;;;;;2.05;0.62;;;;;;;;;;1853999;76;26292;-41
2022/02/11 07:37:57;;;;;;;0.55;0.40;;;;;;;;;;1835610;76;26350;-46
2022/02/11 07:40:25;;;;;;;0.85;0.57;;;;;;;;;;1844967;76;26253;-46
2022/02/11 07:42:53;;;;;;;0.40;0.40;;;;;;;;;;1843860;76;26294;-44
2022/02/11 07:45:22;;;;;;;0.60;0.60;;;;;;;;;;1846760;76;26781;-45
2022/02/11 07:47:50;;;;;;;1.57;0.47;;;;;;;;;;1844371;76;27427;-47
2022/02/11 07:50:18;;;;;;;0.95;0.42;;;;;;;;;;1842099;76;26933;-55
2022/02/11 07:52:45;;;;;;;2.10;0.37;;;;;;;;;;1848299;76;26839;-44
2022/02/11 07:55:12;;;;;;;0.50;0.50;;;;;;;;;;1851159;76;26272;-40
2022/02/11 07:57:40;;;;;;;0.30;0.30;;;;;;;;;;1842557;76;26269;-42
2022/02/11 08:00:08;;;;;;;3.65;0.57;;;;;;;;;;1844053;76;26790;-41
2022/02/11 08:02:36;;;;;;;3.45;0.60;;;;;;;;;;1845470;76;25835;-42
2022/02/11 08:05:04;;;;;;;7.60;0.80;;;;;;;;;;1846039;76;26257;-43
2022/02/11 08:07:31;;;;;;;0.37;0.37;;;;;;;;;;1852385;76;26699;-44
2022/02/11 08:09:59;;;;;;;1.10;0.40;;;;;;;;;;1845483;76;26189;-44
2022/02/11 08:12:27;;;;;;;0.30;0.30;;;;;;;;;;1854189;76;26247;-46
2022/02/11 08:14:54;;;;;;;0.30;0.30;;;;;;;;;;1843526;76;26706;-43
2022/02/11 08:17:22;;;;;;;0.40;0.40;;;;;;;;;;1848993;76;26391;-46
2022/02/11 08:19:49;;;;;;;1.25;0.42;;;;;;;;;;1842612;76;26340;-44
2022/02/11 08:22:17;;;;;;;0.33;0.33;;;;;;;;;;1848437;76;26269;-42
2022/02/11 08:24:44;;;;;;;0.30;0.30;;;;;;;;;;1845764;76;26769;-44
2022/02/11 08:27:14;;;;;;;0.50;0.30;;;;;;;;;;1842002;76;26308;-53
2022/02/11 08:29:41;;;;;;;0.37;0.37;;;;;;;;;;1850111;76;26783;-51
2022/02/11 08:32:09;;;;;;;0.25;0.25;;;;;;;;;;1845501;76;26371;-44
2022/02/11 08:34:36;;;;;;;0.30;0.30;;;;;;;;;;1842734;76;26351;-44
2022/02/11 08:37:04;;;;;;;0.40;0.40;;;;;;;;;;1845316;76;26702;-44
2022/02/11 08:39:34;;;;;;;0.85;0.40;;;;;;;;;;1846386;76;26745;-42
2022/02/11 08:42:02;;;;;;;0.53;0.40;;;;;;;;;;1847154;76;26723;-43
2022/02/11 08:44:29;;;;;;;0.42;0.42;;;;;;;;;;1851469;76;26351;-54
2022/02/11 08:46:57;;;;;;;0.40;0.40;;;;;;;;;;1846419;76;26906;-47
2022/02/11 08:49:24;;;;;;;1.40;0.50;;;;;;;;;;1849437;76;26639;-48
2022/02/11 08:51:51;;;;;;;0.30;0.30;;;;;;;;;;1847488;76;26698;-41
2022/02/11 08:54:18;;;;;;;0.40;0.40;;;;;;;;;;1847023;76;26363;-43
2022/02/11 08:56:48;;;;;;;0.50;0.50;;;;;;;;;;1848586;76;26319;-43
2022/02/11 08:59:16;;;;;;;0.40;0.40;;;;;;;;;;1847689;76;26359;-48
2022/02/11 09:01:43;;;;;;;0.40;0.40;;;;;;;;;;1847313;76;26285;-42
2022/02/11 09:04:11;;;;;;;0.40;0.40;;;;;;;;;;1854192;76;26197;-55
2022/02/11 09:06:38;;;;;;;1.10;0.40;;;;;;;;;;1832589;76;28447;-41
2022/02/11 09:09:08;;;;;;;0.75;0.40;;;;;;;;;;1839385;76;26262;-47
2022/02/11 09:11:34;;;;;;;1.92;0.30;;;;;;;;;;1830479;76;26654;-42
2022/02/11 09:14:02;;;;;;;0.30;0.30;;;;;;;;;;1845099;76;26370;-45
2022/02/11 09:16:30;;;;;;;0.28;0.28;;;;;;;;;;1854497;76;26793;-42
2022/02/11 09:18:58;;;;;;;1.55;0.30;;;;;;;;;;1850093;76;26289;-45
2022/02/11 09:21:26;;;;;;;0.35;0.33;;;;;;;;;;1847890;76;26296;-53
2022/02/11 09:23:53;;;;;;;0.30;0.30;;;;;;;;;;1842655;76;26713;-50
2022/02/11 09:26:20;;;;;;;1.75;0.40;;;;;;;;;;1839921;76;26249;-49
2022/02/11 09:28:47;;;;;;;2.20;0.37;;;;;;;;;;1844363;76;26398;-48
2022/02/11 09:31:15;;;;;;;0.30;0.30;;;;;;;;;;1830513;76;38539;-44
2022/02/11 09:33:42;;;;;;;2.05;0.40;;;;;;;;;;1841956;76;26339;-44
2022/02/11 09:36:10;;;;;;;0.20;0.20;;;;;;;;;;1851769;76;26331;-47
2022/02/11 09:38:38;;;;;;;1.17;0.30;;;;;;;;;;1852054;76;26864;-50
2022/02/11 09:41:06;;;;;;;0.30;0.30;;;;;;;;;;1845994;76;26246;-44
2022/02/11 09:43:33;;;;;;;0.28;0.25;;;;;;;;;;1849848;76;26321;-45
2022/02/11 09:46:01;;;;;;;0.37;0.30;;;;;;;;;;1849183;76;26301;-45
2022/02/11 09:48:28;;;;;;;0.30;0.30;;;;;;;;;;1846258;76;26307;-45
2022/02/11 09:50:56;;;;;;;0.40;0.40;;;;;;;;;;1848705;76;26206;-46
2022/02/11 09:53:27;;;;;;;0.30;0.30;;;;;;;;;;1844825;76;27265;-47
2022/02/11 09:55:55;;;;;;;0.37;0.35;;;;;;;;;;1846104;76;26820;-51
2022/02/11 09:58:22;;;;;;;0.37;0.37;;;;;;;;;;1836015;76;26277;-47
2022/02/11 10:00:52;;;;;;;0.20;0.20;;;;;;;;;;1847431;76;26285;-44
2022/02/11 10:03:29;;;;;;;1.45;0.28;;;;;;;;;;1836816;76;26311;-44
2022/02/11 10:06:00;;;;;;;0.20;0.20;;;;;;;;;;1839567;76;26763;-43
2022/02/11 10:08:29;;;;;;;0.30;0.30;;;;;;;;;;1852406;76;26257;-43
2022/02/11 10:10:58;;;;;;;1.98;0.30;;;;;;;;;;1847592;76;26209;-41
2022/02/11 10:13:28;;;;;;;0.20;0.20;;;;;;;;;;1821484;76;26250;-43
2022/02/11 10:15:57;;;;;;;0.75;0.30;;;;;;;;;;1841361;76;26785;-42
2022/02/11 10:18:31;;;;;;;0.20;0.20;;;;;;;;;;1845728;76;26316;-50
2022/02/11 10:21:03;;;;;;;1.32;0.20;;;;;;;;;;1841205;76;26199;-45
2022/02/11 10:23:31;;;;;;;0.40;0.40;;;;;;;;;;1845972;76;26779;-44
2022/02/11 10:26:07;;;;;;;0.20;0.20;;;;;;;;;;1846621;76;26273;-43
2022/02/11 10:28:36;;;;;;;0.20;0.20;;;;;;;;;;1846134;76;26733;-46
2022/02/11 10:31:08;;;;;;;0.82;0.37;;;;;;;;;;1819126;76;26292;-50
2022/02/11 10:33:43;;;;;;;0.30;0.30;;;;;;;;;;1844457;76;26611;-46
2022/02/11 10:36:15;;;;;;;0.42;0.30;;;;;;;;;;1833835;76;26261;-45
2022/02/11 10:38:42;;;;;;;0.30;0.30;;;;;;;;;;1846862;76;26352;-46
2022/02/11 10:41:10;;;;;;;0.10;0.10;;;;;;;;;;1850245;76;26693;-46
2022/02/11 10:43:37;;;;;;;0.30;0.30;;;;;;;;;;1865193;76;26294;-44
2022/02/11 10:46:06;;;;;;;0.23;0.23;;;;;;;;;;1847608;76;26261;-46
2022/02/11 10:48:35;;;;;;;0.20;0.20;;;;;;;;;;1838712;76;26794;-50
2022/02/11 10:51:06;;;;;;;0.10;0.10;;;;;;;;;;1849855;76;26727;-49
2022/02/11 10:53:34;;;;;;;0.20;0.20;;;;;;;;;;1845117;76;26465;-47
2022/02/11 10:56:02;;;;;;;0.30;0.30;;;;;;;;;;1846930;76;26305;-43
2022/02/11 10:58:32;;;;;;;0.33;0.33;;;;;;;;;;1846580;76;26300;-45
2022/02/11 11:01:01;;;;;;;0.25;0.25;;;;;;;;;;1847487;76;26343;-49
2022/02/11 11:03:31;;;;;;;0.20;0.20;;;;;;;;;;1846002;76;26292;-45
2022/02/11 11:05:59;;;;;;;0.20;0.20;;;;;;;;;;1834485;76;26632;-48
2022/02/11 11:08:30;;;;;;;0.30;0.30;;;;;;;;;;1847372;76;26346;-50
2022/02/11 11:11:00;;;;;;;0.10;0.10;;;;;;;;;;1846066;76;26692;-47
2022/02/11 11:13:29;;;;;;;0.47;0.47;;;;;;;;;;1844406;76;26753;-47
2022/02/11 11:15:56;;;;;;;0.37;0.37;;;;;;;;;;1845036;76;26749;-44
2022/02/11 11:18:27;;;;;;;1.10;0.40;;;;;;;;;;1859785;76;26332;-45
2022/02/11 11:20:52;;;;;;;0.28;0.28;;;;;;;;;;1852182;76;26268;-50
2022/02/11 11:23:21;;;;;;;0.20;0.20;;;;;;;;;;1839982;76;26335;-45
2022/02/11 11:25:59;;;;;;;0.30;0.30;;;;;;;;;;1844252;76;26253;-43
2022/02/11 11:28:29;;;;;;;0.40;0.40;;;;;;;;;;1834714;76;26850;-48
2022/02/11 11:30:56;;;;;;;0.20;0.20;;;;;;;;;;1805054;76;26705;-50
2022/02/11 11:33:23;;;;;;;0.30;0.30;;;;;;;;;;1843790;76;26238;-45
2022/02/11 11:35:55;;;;;;;1.65;0.30;;;;;;;;;;1835844;76;26378;-49
2022/02/11 11:38:23;;;;;;;0.75;0.30;;;;;;;;;;1844076;76;26285;-48
2022/02/11 11:40:58;;;;;;;0.20;0.20;;;;;;;;;;1847995;76;26714;-45
2022/02/11 11:43:32;;;;;;;0.10;0.10;;;;;;;;;;1846145;76;26254;-46
2022/02/11 11:46:04;;;;;;;0.20;0.20;;;;;;;;;;1844304;76;26269;-44
2022/02/11 11:48:51;;;;;;;0.20;0.20;;;;;;;;;;1841613;76;26816;-49
2022/02/11 11:51:19;;;;;;;0.30;0.30;;;;;;;;;;1844574;76;26314;-47
2022/02/11 11:53:46;;;;;;;0.20;0.20;;;;;;;;;;1847355;76;26265;-48
2022/02/11 11:56:36;;;;;;;0.30;0.30;;;;;;;;;;1843177;76;28129;-45
2022/02/11 11:59:05;;;;;;;3.00;0.30;;;;;;;;;;1841460;76;26902;-50
2022/02/11 12:01:34;;;;;;;0.20;0.20;;;;;;;;;;1843072;76;26728;-42
2022/02/11 12:04:05;;;;;;;0.72;0.30;;;;;;;;;;1839671;76;27219;-47
2022/02/11 12:06:33;;;;;;;1.50;0.20;;;;;;;;;;1835488;76;26335;-54
2022/02/11 12:09:00;;;;;;;1.27;0.30;;;;;;;;;;1846948;76;26351;-52
2022/02/11 12:11:27;;;;;;;0.10;0.10;;;;;;;;;;1847384;76;26313;-52
2022/02/11 12:13:58;;;;;;;0.42;0.20;;;;;;;;;;1843538;76;26969;-49
2022/02/11 12:16:25;;;;;;;0.23;0.23;;;;;;;;;;1844926;76;26322;-49
2022/02/11 12:18:52;;;;;;;0.60;0.23;;;;;;;;;;1856810;76;26761;-47
2022/02/11 12:21:20;;;;;;;0.20;0.20;;;;;;;;;;1861735;76;26814;-46
2022/02/11 12:29:20;;;;;;;0.30;0.30;;;;;;;;;;1862235;76;26365;-46
2022/02/11 12:31:51;;;;;;;1.17;0.30;;;;;;;;;;1860308;76;26305;-48
2022/02/11 12:34:20;;;;;;;0.20;0.20;;;;;;;;;;1859453;76;26300;-45
2022/02/11 12:36:48;;;;;;;0.70;0.30;;;;;;;;;;1859988;76;26789;-47
2022/02/11 12:39:18;;;;;;;0.72;0.50;;;;;;;;;;1863494;76;26269;-45
2022/02/11 12:41:46;;;;;;;0.53;0.20;;;;;;;;;;1860189;75;26380;-54
2022/02/11 12:44:27;;;;;;;0.37;0.30;;;;;;;;;;1857525;75;26748;-49
2022/02/11 12:46:55;;;;;;;1.32;0.42;;;;;;;;;;1855750;75;26695;-45
2022/02/11 12:49:22;;;;;;;0.50;0.50;;;;;;;;;;1859289;75;27074;-50
2022/02/11 12:51:51;;;;;;;0.85;0.50;;;;;;;;;;1857375;75;26311;-46
2022/02/11 12:54:20;;;;;;;1.70;0.50;;;;;;;;;;1862094;75;26341;-46
2022/02/11 12:56:49;;;;;;;0.50;0.50;;;;;;;;;;1860069;75;26350;-48
2022/02/11 12:59:16;;;;;;;2.12;0.45;;;;;;;;;;1860664;75;26301;-46
2022/02/11 13:01:44;;;;;;;1.67;0.50;;;;;;;;;;1860849;75;26372;-48
2022/02/11 13:04:19;;;;;;;0.78;0.47;;;;;;;;;;1858805;75;26374;-44
2022/02/11 13:06:46;;;;;;;0.40;0.40;;;;;;;;;;1859993;76;26737;-52
2022/02/11 13:09:16;;;;;;;0.40;0.40;;;;;;;;;;1861214;76;26331;-48
2022/02/11 13:11:45;;;;;;;0.40;0.40;;;;;;;;;;1860852;76;26285;-43
2022/02/11 13:14:12;;;;;;;1.32;0.42;;;;;;;;;;1860110;75;26372;-44
2022/02/11 13:16:40;;;;;;;0.68;0.50;;;;;;;;;;1859518;75;26996;-44
2022/02/11 13:19:11;;;;;;;0.55;0.40;;;;;;;;;;1855631;75;26257;-45
2022/02/11 13:21:40;;;;;;;0.40;0.40;;;;;;;;;;1856870;75;26803;-48
2022/02/11 13:24:07;;;;;;;0.50;0.50;;;;;;;;;;1856201;75;26233;-43
2022/02/11 13:26:35;;;;;;;0.40;0.40;;;;;;;;;;1856214;75;26276;-43
2022/02/11 13:29:02;;;;;;;0.30;0.30;;;;;;;;;;1859200;75;26335;-45
2022/02/11 13:31:31;;;;;;;1.37;0.40;;;;;;;;;;1863903;75;26342;-46
2022/02/11 13:34:03;;;;;;;0.47;0.20;;;;;;;;;;1854393;75;26260;-53
2022/02/11 13:36:30;;;;;;;0.33;0.30;;;;;;;;;;1857667;75;26265;-44
2022/02/11 13:39:00;;;;;;;0.45;0.40;;;;;;;;;;1864314;75;26355;-43
2022/02/11 13:41:29;;;;;;;0.30;0.30;;;;;;;;;;1860356;76;26655;-48
2022/02/11 13:43:58;;;;;;;1.45;0.45;;;;;;;;;;1871510;75;26595;-46
2022/02/11 13:46:33;;;;;;;0.62;0.33;;;;;;;;;;1859739;76;26359;-47
2022/02/11 13:49:06;;;;;;;0.33;0.33;;;;;;;;;;1862129;76;26285;-49
2022/02/11 13:51:33;;;;;;;1.12;0.30;;;;;;;;;;1861144;76;27375;-46
2022/02/11 13:54:14;;;;;;;1.37;0.37;;;;;;;;;;1860357;76;27370;-44
2022/02/11 13:56:42;;;;;;;0.20;0.20;;;;;;;;;;1860388;75;26296;-44
2022/02/11 13:59:15;;;;;;;0.28;0.28;;;;;;;;;;1857750;75;26300;-43
2022/02/11 14:01:44;;;;;;;0.75;0.37;;;;;;;;;;1860952;75;26618;-46
2022/02/11 14:04:14;;;;;;;0.90;0.20;;;;;;;;;;1868308;75;26819;-48
2022/02/11 14:06:49;;;;;;;0.25;0.25;;;;;;;;;;1858709;76;26563;-47
2022/02/11 14:09:26;;;;;;;1.55;0.25;;;;;;;;;;1852475;76;26331;-45
2022/02/11 14:11:54;;;;;;;0.30;0.30;;;;;;;;;;1858285;76;26327;-44
2022/02/11 14:14:23;;;;;;;0.30;0.30;;;;;;;;;;1856734;76;27902;-45
2022/02/11 14:16:51;;;;;;;0.42;0.30;;;;;;;;;;1850383;76;26791;-53
2022/02/11 14:19:24;;;;;;;0.25;0.25;;;;;;;;;;1854843;75;26319;-49
2022/02/11 14:21:48;;;;;;;0.20;0.20;;;;;;;;;;1835597;76;26818;-53
2022/02/11 14:24:15;;;;;;;0.60;0.10;;;;;;;;;;1845360;76;26781;-52
2022/02/11 14:26:43;;;;;;;0.40;0.40;;;;;;;;;;1851654;76;26246;-46
2022/02/11 14:29:11;;;;;;;0.80;0.57;;;;;;;;;;1848610;76;26327;-44
2022/02/11 14:31:40;;;;;;;0.20;0.20;;;;;;;;;;1844592;76;26650;-49
2022/02/11 14:34:07;;;;;;;1.75;0.35;;;;;;;;;;1841024;76;26654;-46
2022/02/11 14:36:39;;;;;;;0.40;0.40;;;;;;;;;;1837014;76;26273;-39
2022/02/11 14:39:04;;;;;;;0.33;0.30;;;;;;;;;;1839973;76;26261;-41
2022/02/11 14:41:47;;;;;;;0.20;0.20;;;;;;;;;;1842715;76;26301;-45
2022/02/11 14:44:21;;;;;;;0.40;0.40;;;;;;;;;;1847808;76;26791;-46
2022/02/11 14:46:50;;;;;;;0.15;0.15;;;;;;;;;;1848774;76;26690;-43
2022/02/11 14:49:18;;;;;;;0.40;0.23;;;;;;;;;;1846444;76;26253;-44
2022/02/11 14:51:46;;;;;;;0.30;0.30;;;;;;;;;;1846965;76;26270;-47
2022/02/11 14:54:13;;;;;;;0.20;0.20;;;;;;;;;;1846635;76;26756;-44
2022/02/11 14:56:42;;;;;;;0.25;0.25;;;;;;;;;;1839775;76;26353;-47
2022/02/11 14:59:09;;;;;;;0.30;0.30;;;;;;;;;;1850137;76;26716;-46
2022/02/11 15:01:37;;;;;;;0.30;0.30;;;;;;;;;;1847764;76;26261;-46
2022/02/11 15:04:04;;;;;;;0.30;0.30;;;;;;;;;;1847654;76;26735;-44
2022/02/11 15:06:32;;;;;;;0.30;0.30;;;;;;;;;;1832072;76;26339;-47
2022/02/11 15:09:01;;;;;;;0.20;0.20;;;;;;;;;;1844403;76;26347;-45
2022/02/11 15:11:28;;;;;;;0.65;0.30;;;;;;;;;;1848123;76;26229;-48
2022/02/11 15:13:56;;;;;;;0.23;0.23;;;;;;;;;;1843055;76;26285;-48
2022/02/11 15:16:23;;;;;;;0.30;0.30;;;;;;;;;;1848357;76;27345;-40
2022/02/11 15:18:50;;;;;;;0.50;0.23;;;;;;;;;;1840290;76;26542;-44
2022/02/11 15:21:19;;;;;;;0.10;0.10;;;;;;;;;;1849016;76;26304;-40
2022/02/11 15:23:47;;;;;;;0.40;0.40;;;;;;;;;;1842073;76;26288;-45
2022/02/11 15:26:16;;;;;;;0.20;0.20;;;;;;;;;;1843189;76;26264;-44
2022/02/11 15:28:44;;;;;;;0.42;0.42;;;;;;;;;;1844524;76;26851;-47
2022/02/11 15:31:12;;;;;;;1.00;0.30;;;;;;;;;;1844137;76;26371;-45
2022/02/11 15:33:41;;;;;;;0.93;0.30;;;;;;;;;;1842824;76;26292;-43
2022/02/11 15:36:09;;;;;;;0.20;0.20;;;;;;;;;;1843541;76;26717;-42
2022/02/11 15:38:36;;;;;;;0.23;0.23;;;;;;;;;;1848993;76;26261;-45
2022/02/11 15:41:04;;;;;;;0.20;0.20;;;;;;;;;;1848934;76;26261;-44
2022/02/11 15:43:34;;;;;;;0.30;0.30;;;;;;;;;;1844597;76;26210;-46
2022/02/11 15:46:01;;;;;;;1.57;0.40;;;;;;;;;;1841408;76;26341;-43
2022/02/11 15:48:28;;;;;;;0.50;0.50;;;;;;;;;;1842030;76;26296;-46
2022/02/11 15:50:55;;;;;;;1.12;0.50;;;;;;;;;;1845221;76;26913;-45
2022/02/11 15:53:25;;;;;;;0.40;0.40;;;;;;;;;;1842577;76;26789;-44
2022/02/11 15:55:52;;;;;;;1.27;0.20;;;;;;;;;;1840668;76;27107;-51
2022/02/11 15:58:19;;;;;;;0.47;0.40;;;;;;;;;;1842862;76;26768;-49
2022/02/11 16:00:46;;;;;;;0.37;0.37;;;;;;;;;;1849481;76;27243;-47
2022/02/11 16:03:13;;;;;;;1.12;0.40;;;;;;;;;;1842591;76;26398;-50
2022/02/11 16:05:41;;;;;;;2.17;0.60;;;;;;;;;;1845123;76;26222;-47
2022/02/11 16:08:08;;;;;;;4.05;0.50;;;;;;;;;;1844226;76;26230;-48
2022/02/11 16:10:36;;;;;;;2.37;0.62;;;;;;;;;;1844950;76;26210;-47
2022/02/11 16:13:03;;;;;;;1.20;0.50;;;;;;;;;;1843395;76;26333;-45
2022/02/11 16:15:30;;;;;;;2.08;0.40;;;;;;;;;;1845637;76;26273;-48
2022/02/11 16:18:00;;;;;;;0.57;0.50;;;;;;;;;;1840014;76;26641;-46
2022/02/11 16:20:28;;;;;;;0.72;0.40;;;;;;;;;;1846569;76;26379;-50
2022/02/11 16:22:55;;;;;;;0.33;0.33;;;;;;;;;;1837949;76;26335;-47
2022/02/11 16:25:23;;;;;;;0.40;0.40;;;;;;;;;;1856077;76;26363;-49
2022/02/11 16:27:53;;;;;;;0.40;0.40;;;;;;;;;;1844329;76;26705;-46
2022/02/11 16:30:22;;;;;;;0.75;0.30;;;;;;;;;;1841953;76;26341;-45
2022/02/11 16:32:49;;;;;;;1.27;0.30;;;;;;;;;;1845414;76;26281;-45
2022/02/11 16:35:17;;;;;;;0.65;0.40;;;;;;;;;;1845503;76;26335;-48
2022/02/11 16:37:45;;;;;;;0.75;0.40;;;;;;;;;;1842903;76;26397;-48
2022/02/11 16:40:13;;;;;;;0.40;0.40;;;;;;;;;;1839142;76;26285;-47
2022/02/11 16:42:41;;;;;;;0.80;0.45;;;;;;;;;;1845713;76;26582;-48
2022/02/11 16:45:09;;;;;;;0.42;0.42;;;;;;;;;;1842255;76;26994;-47
2022/02/11 16:47:36;;;;;;;0.85;0.40;;;;;;;;;;1839633;76;26269;-49
2022/02/11 16:50:06;;;;;;;0.72;0.30;;;;;;;;;;1843338;76;27275;-47
2022/02/11 16:52:33;;;;;;;0.50;0.40;;;;;;;;;;1823238;76;26256;-48
2022/02/11 16:55:02;;;;;;;0.30;0.30;;;;;;;;;;1836479;76;26776;-49
2022/02/11 16:57:30;;;;;;;0.40;0.40;;;;;;;;;;1841419;76;26265;-48
2022/02/11 16:59:57;;;;;;;2.15;0.50;;;;;;;;;;1841771;76;26339;-45
2022/02/11 17:02:25;;;;;;;0.65;0.40;;;;;;;;;;1844053;76;26705;-46
2022/02/11 17:04:53;;;;;;;0.35;0.35;;;;;;;;;;1846691;76;26325;-46
2022/02/11 17:07:20;;;;;;;0.40;0.40;;;;;;;;;;1838729;76;26918;-45
2022/02/11 17:09:47;;;;;;;0.45;0.45;;;;;;;;;;1841017;76;26782;-46
2022/02/11 17:12:15;;;;;;;0.42;0.42;;;;;;;;;;1846030;76;26304;-52
2022/02/11 17:14:42;;;;;;;0.40;0.40;;;;;;;;;;1843878;76;26242;-49
2022/02/11 17:17:09;;;;;;;0.40;0.40;;;;;;;;;;1846739;76;26254;-46
2022/02/11 17:19:37;;;;;;;0.60;0.40;;;;;;;;;;1846277;76;26258;-51
2022/02/11 17:22:04;;;;;;;0.47;0.40;;;;;;;;;;1861235;75;26951;-46
2022/02/11 17:24:32;;;;;;;1.22;0.42;;;;;;;;;;1857952;76;26307;-51
2022/02/11 17:26:59;;;;;;;0.95;0.40;;;;;;;;;;1859826;75;26763;-45
2022/02/11 17:29:27;;;;;;;0.40;0.40;;;;;;;;;;1858859;76;26257;-48
2022/02/11 17:31:54;;;;;;;1.95;0.50;;;;;;;;;;1859268;76;26350;-49
2022/02/11 17:34:22;;;;;;;0.40;0.37;;;;;;;;;;1858776;76;26272;-45
2022/02/11 17:36:49;;;;;;;1.55;0.40;;;;;;;;;;1858537;76;26366;-46
2022/02/11 17:39:16;;;;;;;0.35;0.35;;;;;;;;;;1857716;76;26233;-48
2022/02/11 17:41:43;;;;;;;0.47;0.40;;;;;;;;;;1859525;75;26366;-50
2022/02/11 17:44:11;;;;;;;0.50;0.50;;;;;;;;;;1859518;76;26327;-47
2022/02/11 17:46:38;;;;;;;0.80;0.70;;;;;;;;;;1860995;76;26306;-53
2022/02/11 17:49:05;;;;;;;0.72;0.55;;;;;;;;;;1856568;76;26713;-49
2022/02/11 17:51:32;;;;;;;0.40;0.40;;;;;;;;;;1860239;76;26777;-53
2022/02/11 17:54:00;;;;;;;0.62;0.62;;;;;;;;;;1859308;76;26917;-45
2022/02/11 17:56:27;;;;;;;0.70;0.50;;;;;;;;;;1861821;75;26745;-47
2022/02/11 17:58:54;;;;;;;1.57;0.53;;;;;;;;;;1859419;76;26370;-54
2022/02/11 18:01:21;;;;;;;0.60;0.60;;;;;;;;;;1859421;76;26653;-49
2022/02/11 18:03:49;;;;;;;0.53;0.53;;;;;;;;;;1855872;76;26295;-49
2022/02/11 18:06:16;;;;;;;0.50;0.50;;;;;;;;;;1859720;76;26330;-48
2022/02/11 18:08:43;;;;;;;0.75;0.75;;;;;;;;;;1861442;75;26299;-49
2022/02/11 18:11:11;;;;;;;0.90;0.88;;;;;;;;;;1858870;76;26292;-48
2022/02/11 18:13:38;;;;;;;1.55;0.80;;;;;;;;;;1858962;76;26288;-47
2022/02/11 18:16:06;;;;;;;1.77;1.05;;;;;;;;;;1857627;76;26343;-49
2022/02/11 18:18:33;;;;;;;1.30;1.20;;;;;;;;;;1858573;76;26265;-51
2022/02/11 18:21:01;;;;;;;1.55;1.10;;;;;;;;;;1854479;76;26296;-45
2022/02/11 18:23:28;;;;;;;1.30;1.17;;;;;;;;;;1859021;76;26260;-45
2022/02/11 18:25:55;;;;;;;1.52;1.37;;;;;;;;;;1858528;75;26283;-46
2022/02/11 18:28:23;;;;;;;1.40;1.30;;;;;;;;;;1863601;75;26315;-48
2022/02/11 18:30:50;;;;;;;1.87;1.30;;;;;;;;;;1860668;76;26307;-46